Time;durP1;ratioP1;P1;durP2;ratioP2;P2;SDS_P1;SDS_P2;PMS_P1;PMS_P2;Temp;Humidity;BMP_temperature;BMP_pressure;BME280_temperature;BME280_humidity;BME280_pressure;Samples;Min_cycle;Max_cycle;Signal;HPM_P1;HPM_P2
2023/03/18 00:01:48;;;;;;;15.70;8.65;;;;;;;4.52;50.22;99619.74;1722164;81;21064;-60
2023/03/18 00:04:15;;;;;;;13.72;8.50;;;;;;;4.51;50.25;99620.64;1720724;81;21097;-60
2023/03/18 00:06:42;;;;;;;18.27;9.05;;;;;;;4.48;50.24;99626.73;1722271;81;21495;-59
2023/03/18 00:09:11;;;;;;;17.35;9.75;;;;;;;4.47;50.30;99625.46;1724758;81;21578;-59
2023/03/18 00:11:38;;;;;;;18.82;9.63;;;;;;;4.43;50.31;99619.97;1718903;81;21130;-62
2023/03/18 00:14:07;;;;;;;16.30;9.00;;;;;;;4.34;50.43;99617.58;1698222;81;21057;-59
2023/03/18 00:16:36;;;;;;;13.68;8.30;;;;;;;4.40;50.43;99614.88;1720418;81;21006;-59
2023/03/18 00:19:04;;;;;;;17.23;9.20;;;;;;;4.37;50.43;99635.60;1722072;81;21176;-59
2023/03/18 00:21:34;;;;;;;13.62;8.05;;;;;;;4.35;50.46;99624.47;1722353;81;20996;-59
2023/03/18 00:24:00;;;;;;;13.32;8.73;;;;;;;4.33;50.50;99624.49;1719428;80;21608;-59
2023/03/18 00:26:28;;;;;;;15.28;8.45;;;;;;;4.31;50.54;99613.33;1713788;81;21567;-59
2023/03/18 00:28:57;;;;;;;18.15;9.18;;;;;;;4.31;50.58;99604.73;1715394;81;21125;-59
2023/03/18 00:31:26;;;;;;;19.45;9.58;;;;;;;4.30;50.59;99600.46;1719585;81;21060;-59
2023/03/18 00:33:52;;;;;;;16.75;9.13;;;;;;;4.28;50.65;99599.64;1718822;81;21030;-61
2023/03/18 00:36:24;;;;;;;22.05;8.45;;;;;;;4.22;50.64;99609.23;1723430;81;21010;-59
2023/03/18 00:38:49;;;;;;;16.12;9.10;;;;;;;4.20;50.71;99605.86;1721839;82;21045;-60
2023/03/18 00:41:16;;;;;;;19.95;9.05;;;;;;;4.21;50.73;99599.78;1723394;81;21531;-59
2023/03/18 00:43:53;;;;;;;15.65;8.33;;;;;;;4.21;50.77;99597.20;1719406;81;21054;-59
2023/03/18 00:46:28;;;;;;;14.87;8.57;;;;;;;4.15;50.74;99603.81;1720968;81;21076;-59
2023/03/18 00:48:59;;;;;;;17.02;9.13;;;;;;;4.13;50.85;99593.95;1718347;81;23001;-59
2023/03/18 00:51:30;;;;;;;16.73;9.08;;;;;;;4.12;50.87;99589.67;1723709;81;21039;-61
2023/03/18 00:54:01;;;;;;;17.90;9.03;;;;;;;4.11;50.95;99598.29;1714343;81;21086;-59
2023/03/18 00:56:30;;;;;;;15.40;9.40;;;;;;;4.10;50.96;99606.94;1719828;81;21019;-59
2023/03/18 00:58:57;;;;;;;16.52;8.80;;;;;;;4.12;50.96;99602.59;1715220;81;21042;-60
2023/03/18 01:01:28;;;;;;;15.75;9.33;;;;;;;4.11;51.00;99593.12;1720180;80;21009;-59
2023/03/18 01:03:54;;;;;;;15.58;8.78;;;;;;;4.10;51.01;99588.84;1723261;81;21044;-59
2023/03/18 01:06:27;;;;;;;17.02;9.53;;;;;;;4.10;51.04;99588.84;1719304;82;21010;-59
2023/03/18 01:08:55;;;;;;;18.65;9.35;;;;;;;4.07;51.10;99583.76;1719564;81;21519;-59
2023/03/18 01:11:23;;;;;;;13.28;8.25;;;;;;;4.06;51.09;99597.54;1716544;81;21038;-59
2023/03/18 01:13:50;;;;;;;15.23;8.45;;;;;;;4.03;51.14;99584.69;1719010;82;21063;-59
2023/03/18 01:16:18;;;;;;;17.07;9.20;;;;;;;4.04;51.19;99581.25;1725151;82;21559;-59
2023/03/18 01:18:45;;;;;;;19.32;9.13;;;;;;;4.02;51.20;99581.71;1726754;81;21062;-59
2023/03/18 01:21:13;;;;;;;14.53;8.83;;;;;;;4.02;51.23;99611.42;1724311;81;21016;-60
2023/03/18 01:23:39;;;;;;;;;;;;;;;4.05;51.32;99579.05;1725323;80;21070;-59
2023/03/18 01:26:06;;;;;;;17.45;9.18;;;;;;;4.04;51.33;99579.95;1721872;82;20165;-62
2023/03/18 01:28:34;;;;;;;15.32;8.80;;;;;;;4.01;51.36;99577.44;1721086;81;21115;-59
2023/03/18 01:31:00;;;;;;;19.37;8.63;;;;;;;4.01;51.39;99570.98;1719986;82;21065;-60
2023/03/18 01:33:28;;;;;;;14.73;9.25;;;;;;;4.00;51.41;99569.27;1714846;81;21494;-59
2023/03/18 01:35:59;;;;;;;19.25;8.73;;;;;;;3.99;51.47;99574.03;1723943;82;21039;-60
2023/03/18 01:38:29;;;;;;;15.28;9.40;;;;;;;3.99;51.50;99567.58;1721951;81;21443;-59
2023/03/18 01:40:58;;;;;;;16.20;9.33;;;;;;;4.04;51.56;99561.88;1721556;80;20969;-59
2023/03/18 01:43:32;;;;;;;14.00;8.63;;;;;;;4.05;51.58;99555.80;1718100;81;21014;-59
2023/03/18 01:46:03;;;;;;;17.73;9.28;;;;;;;4.05;51.60;99554.52;1723338;82;21154;-62
2023/03/18 01:48:34;;;;;;;17.20;9.80;;;;;;;4.06;51.64;99558.78;1721461;81;21005;-59
2023/03/18 01:51:08;;;;;;;20.68;10.05;;;;;;;4.07;51.65;99556.63;1721624;82;21097;-59
2023/03/18 01:53:43;;;;;;;21.33;9.68;;;;;;;4.07;51.70;99551.46;1724705;81;21472;-59
2023/03/18 01:56:10;;;;;;;18.55;10.20;;;;;;;4.05;51.75;99557.09;1720189;81;21070;-60
2023/03/18 01:58:42;;;;;;;14.78;9.00;;;;;;;4.03;51.77;99557.56;1720126;80;21554;-60
2023/03/18 02:01:27;;;;;;;15.88;8.80;;;;;;;4.06;51.80;99560.52;1718800;81;22315;-59
2023/03/18 02:03:55;;;;;;;16.90;8.63;;;;;;;4.06;51.85;99551.03;1722667;80;20994;-59
2023/03/18 02:06:23;;;;;;;16.40;8.78;;;;;;;4.06;51.85;99561.37;1722614;81;21046;-60
2023/03/18 02:08:50;;;;;;;16.75;9.00;;;;;;;4.06;51.90;99561.81;1720463;81;21530;-59
2023/03/18 02:11:17;;;;;;;12.60;8.88;;;;;;;4.07;51.95;99560.50;1718778;81;21051;-61
2023/03/18 02:13:45;;;;;;;16.57;8.65;;;;;;;4.07;51.91;99565.67;1723732;80;21540;-59
2023/03/18 02:16:27;;;;;;;;;;;;;;;4.07;51.96;99555.34;1725107;81;20982;-60
2023/03/18 02:19:01;;;;;;;15.98;8.78;;;;;;;4.06;51.98;99566.98;1719685;81;20137;-59
2023/03/18 02:21:44;;;;;;;19.05;9.68;;;;;;;4.08;52.01;99549.27;1724375;81;21067;-61
2023/03/18 02:24:51;;;;;;;19.50;9.20;;;;;;;4.07;52.02;99547.58;1722014;81;21008;-61
2023/03/18 02:27:23;;;;;;;19.32;10.03;;;;;;;4.07;52.05;99557.92;1717790;81;21452;-58
2023/03/18 02:29:56;;;;;;;19.23;9.45;;;;;;;4.06;52.03;99561.37;1724065;81;21063;-62
2023/03/18 02:32:27;;;;;;;18.85;10.18;;;;;;;4.04;52.07;99551.53;1728501;81;21568;-59
2023/03/18 02:34:55;;;;;;;16.32;9.28;;;;;;;4.00;52.08;99553.77;1726340;81;20966;-60
2023/03/18 02:37:22;;;;;;;16.20;9.05;;;;;;;4.00;52.10;99560.22;1723323;81;21040;-59
2023/03/18 02:39:49;;;;;;;17.32;9.43;;;;;;;3.99;52.13;99552.08;1730062;81;20929;-59
2023/03/18 02:42:30;;;;;;;18.98;9.78;;;;;;;4.01;52.14;99558.06;1723180;81;21046;-58
2023/03/18 02:44:57;;;;;;;18.73;9.45;;;;;;;3.97;52.16;99557.27;1726663;81;21049;-59
2023/03/18 02:47:27;;;;;;;13.48;8.33;;;;;;;3.93;52.23;99550.94;1723344;81;20942;-59
2023/03/18 02:49:54;;;;;;;15.23;9.15;;;;;;;3.90;52.20;99554.88;1721594;81;21043;-61
2023/03/18 02:52:21;;;;;;;19.52;10.32;;;;;;;3.90;52.22;99562.63;1723876;81;21055;-59
2023/03/18 02:54:47;;;;;;;13.65;8.20;;;;;;;3.84;52.26;99544.66;1727320;81;21082;-59
2023/03/18 02:57:14;;;;;;;14.58;8.98;;;;;;;3.90;52.26;99557.02;1728049;81;21108;-59
2023/03/18 02:59:41;;;;;;;17.92;9.13;;;;;;;3.89;52.30;99569.95;1726469;81;21509;-61
2023/03/18 03:02:07;;;;;;;16.85;9.63;;;;;;;3.87;52.26;99566.13;1720279;81;21014;-61
2023/03/18 03:04:34;;;;;;;14.45;9.45;;;;;;;3.85;52.28;99556.72;1728232;81;21096;-59
2023/03/18 03:07:01;;;;;;;15.72;9.35;;;;;;;3.81;52.31;99536.13;1727726;81;21117;-59
2023/03/18 03:09:28;;;;;;;20.12;9.35;;;;;;;3.81;52.34;99553.36;1725289;81;21031;-59
2023/03/18 03:11:56;;;;;;;19.92;8.93;;;;;;;3.79;52.33;99545.63;1726766;81;21192;-60
2023/03/18 03:14:24;;;;;;;16.45;8.70;;;;;;;3.79;52.38;99546.08;1698604;81;21110;-60
2023/03/18 03:16:51;;;;;;;18.40;9.73;;;;;;;3.76;52.36;99550.87;1727923;81;21003;-59
2023/03/18 03:19:18;;;;;;;14.07;9.18;;;;;;;3.73;52.40;99550.94;1726358;81;21004;-59
2023/03/18 03:21:46;;;;;;;17.00;9.85;;;;;;;3.68;52.42;99552.77;1726756;81;21007;-59
2023/03/18 03:24:13;;;;;;;16.12;9.73;;;;;;;3.63;52.46;99567.50;1724471;81;20963;-59
2023/03/18 03:26:39;;;;;;;16.32;9.60;;;;;;;3.63;52.48;99543.42;1722145;81;21056;-59
2023/03/18 03:29:06;;;;;;;15.48;9.50;;;;;;;3.61;52.53;99546.02;1718434;81;21004;-59
2023/03/18 03:31:34;;;;;;;18.80;9.95;;;;;;;3.58;52.55;99540.92;1710385;82;20964;-59
2023/03/18 03:34:01;;;;;;;13.13;8.23;;;;;;;3.55;52.60;99538.41;1679187;84;21140;-61
2023/03/18 03:36:28;;;;;;;17.87;10.15;;;;;;;3.53;52.60;99540.20;1713734;82;21045;-60
2023/03/18 03:38:55;;;;;;;16.80;9.18;;;;;;;3.51;52.65;99532.48;1717454;82;21008;-60
2023/03/18 03:41:22;;;;;;;20.72;10.23;;;;;;;3.51;52.72;99555.71;1719627;82;21549;-59
2023/03/18 03:43:49;;;;;;;18.35;9.33;;;;;;;3.50;52.76;99535.08;1710495;82;21443;-59
2023/03/18 03:46:15;;;;;;;13.60;8.88;;;;;;;3.48;52.81;99529.13;1683259;84;20951;-59
2023/03/18 03:48:43;;;;;;;14.33;9.40;;;;;;;3.47;52.83;99529.98;1712825;82;21078;-59
2023/03/18 03:51:09;;;;;;;17.55;8.95;;;;;;;3.47;52.91;99522.23;1719582;82;21614;-64
2023/03/18 03:53:36;;;;;;;14.83;8.75;;;;;;;3.49;52.95;99528.23;1716508;82;21549;-59
2023/03/18 03:56:06;;;;;;;18.90;9.53;;;;;;;3.49;52.97;99528.23;1701856;82;20957;-59
2023/03/18 03:58:33;;;;;;;17.17;9.23;;;;;;;3.49;53.03;99527.78;1721692;82;20893;-59
2023/03/18 04:00:59;;;;;;;14.00;9.17;;;;;;;3.52;53.06;99539.78;1718691;82;21865;-59
2023/03/18 04:03:27;;;;;;;16.97;9.35;;;;;;;3.51;53.08;99523.89;1718031;82;21553;-62
2023/03/18 04:05:55;;;;;;;15.28;8.53;;;;;;;3.53;53.13;99516.97;1721589;82;20993;-59
2023/03/18 04:08:22;;;;;;;16.37;10.03;;;;;;;3.56;53.16;99535.81;1717845;82;21083;-61
2023/03/18 04:10:48;;;;;;;18.70;8.80;;;;;;;3.59;53.15;99516.38;1718565;82;21039;-59
2023/03/18 04:13:15;;;;;;;13.93;9.05;;;;;;;3.59;53.15;99516.83;1718890;82;21546;-59
2023/03/18 04:15:46;;;;;;;20.30;9.50;;;;;;;3.59;53.16;99521.99;1717002;82;21051;-60
2023/03/18 04:18:13;;;;;;;14.95;9.03;;;;;;;3.57;53.18;99516.01;1710713;82;21032;-59
2023/03/18 04:20:47;;;;;;;17.85;8.75;;;;;;;3.57;53.20;99510.84;1702880;82;21440;-59
2023/03/18 04:23:11;;;;;;;15.80;8.98;;;;;;;3.55;53.20;99515.18;1706827;82;21013;-59
2023/03/18 04:25:45;;;;;;;17.20;9.20;;;;;;;3.54;53.24;99513.05;1677740;84;20989;-61
2023/03/18 04:28:12;;;;;;;16.25;8.48;;;;;;;3.54;53.22;99514.34;1668628;84;20979;-60
2023/03/18 04:30:39;;;;;;;19.30;9.60;;;;;;;3.53;53.28;99505.36;1704761;82;21495;-59
2023/03/18 04:33:06;;;;;;;14.28;8.68;;;;;;;3.53;53.30;99513.09;1709429;82;21472;-58
2023/03/18 04:35:32;;;;;;;15.85;9.20;;;;;;;3.52;53.30;99512.67;1710748;82;21037;-62
2023/03/18 04:38:00;;;;;;;14.55;9.50;;;;;;;3.51;53.35;99508.41;1703471;82;21080;-62
2023/03/18 04:40:27;;;;;;;16.37;9.03;;;;;;;3.50;53.36;99506.68;1710930;82;20954;-59
2023/03/18 04:42:53;;;;;;;15.88;9.13;;;;;;;3.50;53.37;99514.42;1699636;82;21018;-62
2023/03/18 04:45:21;;;;;;;14.18;8.00;;;;;;;3.49;53.42;99503.70;1708898;82;21445;-59
2023/03/18 04:47:48;;;;;;;;;;;;;;;3.47;53.39;99502.44;1702532;82;21065;-60
2023/03/18 04:50:16;;;;;;;18.67;10.18;;;;;;;3.29;53.79;99488.20;1706153;82;20145;-59
2023/03/18 04:52:43;;;;;;;13.28;8.35;;;;;;;3.29;53.79;99488.20;1699268;82;21505;-59
2023/03/18 04:55:16;;;;;;;15.13;9.58;;;;;;;3.36;53.48;99507.86;1708433;82;20984;-59
2023/03/18 04:57:43;;;;;;;15.55;9.15;;;;;;;3.31;53.56;99508.39;1704822;82;20918;-59
2023/03/18 05:00:20;;;;;;;14.33;8.70;;;;;;;3.30;53.62;99507.95;1703187;82;21055;-60
2023/03/18 05:02:44;;;;;;;16.67;9.75;;;;;;;3.26;53.72;99498.59;1701000;82;21540;-59
2023/03/18 05:05:11;;;;;;;14.13;9.20;;;;;;;3.24;53.71;99487.45;1708476;82;21044;-59
2023/03/18 05:07:37;;;;;;;14.78;8.48;;;;;;;3.25;53.74;99497.33;1708226;82;21033;-59
2023/03/18 05:10:06;;;;;;;18.45;10.18;;;;;;;3.26;53.86;99501.18;1707473;82;21498;-60
2023/03/18 05:12:33;;;;;;;12.82;8.63;;;;;;;3.26;53.87;99485.70;1707701;82;21633;-59
2023/03/18 05:15:00;;;;;;;19.55;9.08;;;;;;;3.27;53.91;99486.09;1703194;82;20957;-60
2023/03/18 05:17:32;;;;;;;17.17;9.95;;;;;;;3.29;53.98;99483.05;1677582;83;20980;-59
2023/03/18 05:20:03;;;;;;;14.73;9.33;;;;;;;3.31;54.01;99499.36;1687176;82;21067;-59
2023/03/18 05:22:29;;;;;;;16.52;9.83;;;;;;;3.35;54.04;99511.30;1701114;82;21512;-59
2023/03/18 05:24:58;;;;;;;17.42;9.23;;;;;;;3.36;54.06;99502.69;1700619;82;20988;-60
2023/03/18 05:27:27;;;;;;;15.43;9.28;;;;;;;3.37;54.09;99488.05;1703326;82;21007;-60
2023/03/18 05:29:56;;;;;;;18.75;10.10;;;;;;;3.39;54.08;99495.74;1705060;82;21024;-59
2023/03/18 05:32:25;;;;;;;20.97;10.18;;;;;;;3.40;54.12;99512.95;1706084;82;21055;-59
2023/03/18 05:34:53;;;;;;;16.42;9.95;;;;;;;3.39;54.15;99518.55;1693828;82;21026;-59
2023/03/18 05:37:20;;;;;;;15.95;9.23;;;;;;;3.40;54.18;99482.82;1712685;82;21043;-58
2023/03/18 05:39:49;;;;;;;18.07;9.93;;;;;;;3.41;54.21;99494.83;1709731;82;20999;-59
2023/03/18 05:42:16;;;;;;;16.35;9.18;;;;;;;3.45;54.20;99484.02;1690436;83;20961;-59
2023/03/18 05:44:43;;;;;;;;;;;;;;;3.46;54.22;99485.70;1720989;81;21044;-59
2023/03/18 05:47:11;;;;;;;16.90;9.20;;;;;;;3.46;54.19;99488.29;1711458;82;20211;-59
2023/03/18 05:49:37;;;;;;;;;;;;;;;3.45;54.23;99490.47;1663580;85;21430;-61
2023/03/18 05:52:04;;;;;;;16.17;9.10;;;;;;;3.47;54.22;99483.52;1724477;81;20308;-59
2023/03/18 05:54:31;;;;;;;20.32;9.58;;;;;;;3.49;54.25;99508.42;1720673;81;21019;-59
2023/03/18 05:56:58;;;;;;;18.30;10.13;;;;;;;3.51;54.25;99498.08;1727284;82;20921;-60
2023/03/18 05:59:25;;;;;;;18.62;9.35;;;;;;;3.55;54.29;99507.44;1726462;81;21503;-60
2023/03/18 06:01:53;;;;;;;16.73;8.78;;;;;;;3.58;54.33;99497.04;1721175;81;21092;-60
2023/03/18 06:04:19;;;;;;;;;;;;;;;3.61;54.27;99499.55;1722445;81;21028;-59
2023/03/18 06:06:47;;;;;;;15.90;9.20;;;;;;;3.63;54.25;99508.12;1720208;82;20228;-60
2023/03/18 06:09:17;;;;;;;15.25;9.43;;;;;;;3.63;54.25;99499.08;1715464;81;20979;-59
2023/03/18 06:11:44;;;;;;;16.02;9.30;;;;;;;3.64;54.24;99496.92;1705383;82;21080;-59
2023/03/18 06:14:11;;;;;;;15.65;9.38;;;;;;;3.66;54.23;99498.17;1717119;82;21584;-60
2023/03/18 06:16:38;;;;;;;15.83;9.30;;;;;;;3.67;54.26;99500.73;1716456;82;21011;-59
2023/03/18 06:19:06;;;;;;;15.28;9.28;;;;;;;3.70;54.26;99512.27;1716058;82;20982;-59
2023/03/18 06:21:33;;;;;;;;;;;;;;;3.74;54.32;99498.39;1710018;82;20958;-61
2023/03/18 06:24:01;;;;;;;16.60;8.83;;;;;;;3.81;54.25;99497.38;1713957;81;20442;-59
2023/03/18 06:26:28;;;;;;;15.13;8.83;;;;;;;3.88;54.28;99499.81;1710094;82;21091;-59
2023/03/18 06:28:56;;;;;;;17.75;9.70;;;;;;;3.94;54.21;99511.29;1722912;81;20984;-59
2023/03/18 06:31:24;;;;;;;14.18;9.10;;;;;;;4.00;54.22;99509.84;1714964;82;21524;-59
2023/03/18 06:33:52;;;;;;;15.68;8.88;;;;;;;4.02;54.22;99502.91;1716839;82;21017;-62
2023/03/18 06:36:19;;;;;;;16.95;9.10;;;;;;;4.05;54.18;99504.13;1709510;83;21454;-59
2023/03/18 06:38:48;;;;;;;15.55;8.73;;;;;;;4.07;54.24;99506.24;1694936;83;20952;-59
2023/03/18 06:41:15;;;;;;;15.38;9.68;;;;;;;4.16;54.28;99511.18;1710185;82;21081;-60
2023/03/18 06:43:42;;;;;;;19.07;10.28;;;;;;;4.21;54.22;99509.34;1700098;82;21524;-60
2023/03/18 06:46:13;;;;;;;18.50;10.03;;;;;;;4.29;54.27;99510.89;1668646;83;21082;-61
2023/03/18 06:48:40;;;;;;;15.50;9.20;;;;;;;4.38;54.24;99505.03;1700950;83;21002;-60
2023/03/18 06:51:10;;;;;;;15.60;9.10;;;;;;;4.47;54.19;99506.53;1704269;83;21008;-59
2023/03/18 06:53:36;;;;;;;15.65;9.03;;;;;;;4.50;54.15;99505.16;1702113;82;21058;-61
2023/03/18 06:56:07;;;;;;;16.32;9.63;;;;;;;4.54;54.08;99506.80;1706778;83;21118;-60
2023/03/18 06:58:34;;;;;;;20.88;10.05;;;;;;;4.59;54.08;99507.50;1700286;82;21018;-60
2023/03/18 07:01:00;;;;;;;24.20;14.58;;;;;;;4.71;54.07;99498.59;1703478;82;21062;-60
2023/03/18 07:03:27;;;;;;;36.33;15.75;;;;;;;4.84;54.03;99512.02;1708303;82;21160;-59
2023/03/18 07:05:54;;;;;;;15.75;10.85;;;;;;;5.03;54.05;99509.78;1708586;82;21505;-59
2023/03/18 07:08:21;;;;;;;17.70;9.88;;;;;;;5.11;53.77;99519.02;1706238;82;21587;-59
2023/03/18 07:10:53;;;;;;;13.70;9.05;;;;;;;5.22;53.64;99515.30;1707110;82;21023;-60
2023/03/18 07:13:20;;;;;;;14.23;9.53;;;;;;;5.34;53.41;99508.45;1703172;82;21076;-59
2023/03/18 07:15:47;;;;;;;26.60;11.97;;;;;;;5.43;53.27;99512.52;1698855;83;20924;-59
2023/03/18 07:18:14;;;;;;;19.80;10.82;;;;;;;5.40;52.96;99518.63;1704791;83;21009;-61
2023/03/18 07:20:43;;;;;;;17.57;10.82;;;;;;;5.36;52.99;99511.41;1703144;83;21073;-59
2023/03/18 07:23:10;;;;;;;24.67;16.87;;;;;;;5.38;52.93;99520.44;1707615;82;20998;-60
2023/03/18 07:25:36;;;;;;;17.42;11.20;;;;;;;5.39;52.80;99513.05;1708189;83;21088;-60
2023/03/18 07:28:04;;;;;;;17.52;9.28;;;;;;;5.39;52.59;99502.70;1707283;82;21058;-64
2023/03/18 07:30:30;;;;;;;;;;;;;;;5.39;52.52;99508.72;1720490;82;21051;-60
2023/03/18 07:32:57;;;;;;;18.00;11.38;;;;;;;5.38;52.28;99498.42;1720232;81;20123;-63
2023/03/18 07:35:24;;;;;;;29.77;14.73;;;;;;;5.39;52.29;99494.93;1719665;81;21038;-66
2023/03/18 07:37:52;;;;;;;22.25;12.88;;;;;;;5.43;52.35;99500.41;1722110;81;21061;-60
2023/03/18 07:40:19;;;;;;;18.77;12.40;;;;;;;5.53;52.31;99494.52;1723960;81;21091;-60
2023/03/18 07:42:47;;;;;;;21.35;10.35;;;;;;;5.77;52.40;99498.95;1721395;81;20932;-61
2023/03/18 07:45:15;;;;;;;22.85;11.18;;;;;;;6.01;52.17;99494.75;1722190;81;21042;-60
2023/03/18 07:47:44;;;;;;;16.73;9.70;;;;;;;6.15;52.03;99487.83;1727646;81;21033;-62
2023/03/18 07:50:12;;;;;;;17.87;9.63;;;;;;;6.27;52.14;99493.05;1721776;81;21074;-61
2023/03/18 07:52:41;;;;;;;;;;;;;;;6.50;52.06;99487.95;1722265;81;21514;-60
2023/03/18 07:55:10;;;;;;;20.70;10.05;;;;;;;6.76;51.81;99496.57;1721587;81;20140;-66
2023/03/18 07:57:37;;;;;;;18.73;10.43;;;;;;;6.99;51.85;99489.71;1723079;81;21583;-60
2023/03/18 08:00:09;;;;;;;14.73;10.08;;;;;;;7.12;51.32;99490.97;1723547;82;21085;-62
2023/03/18 08:02:35;;;;;;;16.52;11.28;;;;;;;7.14;50.91;99520.30;1724211;81;21087;-60
2023/03/18 08:05:05;;;;;;;15.38;9.45;;;;;;;7.20;50.97;99495.42;1722271;82;21467;-62
2023/03/18 08:07:34;;;;;;;15.98;9.25;;;;;;;7.25;50.76;99492.18;1724540;82;21462;-63
2023/03/18 08:10:01;;;;;;;19.02;10.70;;;;;;;7.32;50.51;99488.92;1724452;80;21004;-62
2023/03/18 08:12:30;;;;;;;14.20;9.48;;;;;;;7.39;50.51;99487.34;1722160;81;21000;-60
2023/03/18 08:14:58;;;;;;;18.07;10.23;;;;;;;7.47;49.96;99486.19;1714158;81;21091;-61
2023/03/18 08:17:27;;;;;;;12.33;8.33;;;;;;;7.39;49.74;99482.14;1726377;81;21067;-62
2023/03/18 08:19:54;;;;;;;13.90;10.15;;;;;;;7.22;49.20;99494.89;1722930;81;21078;-60
2023/03/18 08:22:21;;;;;;;22.27;11.88;;;;;;;7.03;49.23;99478.30;1724245;81;20916;-61
2023/03/18 08:24:47;;;;;;;18.92;10.38;;;;;;;6.98;49.04;99485.44;1719464;82;21440;-62
2023/03/18 08:27:16;;;;;;;18.98;9.65;;;;;;;6.93;48.86;99491.63;1697843;82;21542;-60
2023/03/18 08:29:43;;;;;;;12.90;9.45;;;;;;;6.90;48.98;99483.95;1720232;82;21028;-64
2023/03/18 08:32:14;;;;;;;19.32;10.08;;;;;;;7.01;48.80;99461.95;1707644;83;20971;-63
2023/03/18 08:34:40;;;;;;;17.45;9.88;;;;;;;7.12;48.95;99468.89;1704744;82;21092;-61
2023/03/18 08:37:11;;;;;;;17.02;9.98;;;;;;;7.40;48.84;99473.44;1705495;82;21557;-61
2023/03/18 08:39:36;;;;;;;16.85;10.10;;;;;;;7.48;48.60;99457.99;1678737;82;21030;-62
2023/03/18 08:42:07;;;;;;;14.85;9.70;;;;;;;7.65;48.42;99458.66;1705607;82;20968;-62
2023/03/18 08:44:39;;;;;;;15.08;10.43;;;;;;;7.87;48.67;99462.52;1707711;83;21062;-63
2023/03/18 08:47:09;;;;;;;15.65;9.73;;;;;;;8.29;48.62;99464.68;1707380;82;21030;-62
2023/03/18 08:49:36;;;;;;;14.20;9.28;;;;;;;8.53;48.16;99467.17;1709886;82;21031;-61
2023/03/18 08:52:03;;;;;;;29.05;11.35;;;;;;;8.62;48.11;99482.38;1705875;82;21035;-63
2023/03/18 08:54:29;;;;;;;12.05;7.50;;;;;;;8.53;47.91;99459.37;1707056;82;21042;-61
2023/03/18 08:56:59;;;;;;;11.80;7.87;;;;;;;8.52;47.57;99458.98;1707906;82;21026;-61
2023/03/18 08:59:27;;;;;;;13.20;9.45;;;;;;;8.79;47.38;99470.40;1689605;84;21022;-61
2023/03/18 09:01:56;;;;;;;18.12;11.00;;;;;;;8.92;47.16;99474.16;1704248;82;21035;-62
2023/03/18 09:04:24;;;;;;;10.13;8.10;;;;;;;8.81;47.12;99465.98;1707797;82;20968;-60
2023/03/18 09:06:51;;;;;;;13.53;7.47;;;;;;;8.86;46.81;99457.52;1705060;82;20968;-61
2023/03/18 09:09:18;;;;;;;12.05;8.35;;;;;;;8.85;46.94;99470.13;1706090;82;21584;-62
2023/03/18 09:11:45;;;;;;;17.30;9.30;;;;;;;8.96;46.64;99473.09;1704340;82;21616;-62
2023/03/18 09:14:13;;;;;;;18.00;10.60;;;;;;;8.95;46.64;99467.52;1708674;82;21110;-61
2023/03/18 09:16:41;;;;;;;35.60;22.67;;;;;;;8.95;46.36;99471.42;1703123;82;21337;-62
2023/03/18 09:19:08;;;;;;;24.20;16.90;;;;;;;8.85;46.34;99467.52;1708644;83;21774;-63
2023/03/18 09:21:36;;;;;;;24.67;16.70;;;;;;;8.85;46.35;99465.78;1699394;83;21442;-64
2023/03/18 09:24:05;;;;;;;21.10;11.05;;;;;;;8.81;46.18;99459.01;1707229;83;21697;-61
2023/03/18 09:26:32;;;;;;;15.68;8.25;;;;;;;8.90;46.28;99465.56;1705952;82;21105;-62
2023/03/18 09:28:59;;;;;;;14.05;9.08;;;;;;;8.91;46.27;99465.51;1709015;82;21049;-62
2023/03/18 09:31:29;;;;;;;26.35;20.72;;;;;;;9.06;46.32;99474.38;1688014;83;21088;-60
2023/03/18 09:33:56;;;;;;;12.28;7.85;;;;;;;9.19;46.22;99461.20;1733195;81;20964;-61
2023/03/18 09:36:23;;;;;;;;;;;;;;;9.28;46.19;99470.81;1740311;81;21107;-61
2023/03/18 09:38:51;;;;;;;15.90;8.03;;;;;;;9.30;46.08;99461.14;1733298;81;20149;-62
2023/03/18 09:41:44;;;;;;;15.85;9.23;;;;;;;9.23;46.12;99470.17;1737729;81;20982;-62
2023/03/18 09:44:30;;;;;;;14.45;9.80;;;;;;;9.18;45.76;99452.98;1734514;81;20940;-62
2023/03/18 09:47:31;;;;;;;12.70;9.35;;;;;;;8.98;45.68;99445.23;1692586;83;21560;-61
2023/03/18 09:50:19;;;;;;;21.95;12.10;;;;;;;9.01;45.59;99439.89;1697641;82;21494;-63
2023/03/18 09:52:54;;;;;;;19.75;10.70;;;;;;;8.99;45.49;99448.25;1724939;82;21557;-62
2023/03/18 09:55:28;;;;;;;13.70;8.73;;;;;;;9.02;45.13;99434.22;1673009;84;21021;-62
2023/03/18 09:58:02;;;;;;;13.15;9.23;;;;;;;9.22;45.20;99438.54;1667704;84;21080;-60
2023/03/18 10:00:35;;;;;;;17.87;11.63;;;;;;;9.43;45.10;99428.39;1669544;82;21065;-65
2023/03/18 10:03:13;;;;;;;15.32;8.98;;;;;;;9.54;45.03;99420.08;1670717;83;21122;-64
2023/03/18 10:05:53;;;;;;;12.78;7.70;;;;;;;9.79;44.80;99432.77;1676980;84;21067;-62
2023/03/18 10:08:58;;;;;;;15.40;8.35;;;;;;;9.92;44.83;99418.22;1672857;82;21102;-61
2023/03/18 10:11:50;;;;;;;14.25;7.95;;;;;;;10.12;44.81;99420.30;1671135;84;21108;-64
2023/03/18 10:14:33;;;;;;;13.40;8.65;;;;;;;10.29;44.42;99395.53;1672478;84;21157;-67
2023/03/18 10:17:46;;;;;;;13.18;8.43;;;;;;;10.29;44.42;99395.53;1677838;83;21576;-64
2023/03/18 10:20:23;;;;;;;12.20;9.13;;;;;;;10.46;44.37;99408.55;1667748;84;21048;-64
2023/03/18 10:23:20;;;;;;;22.85;17.85;;;;;;;10.91;44.27;99412.27;1671872;84;21575;-65
2023/03/18 10:25:56;;;;;;;17.92;10.80;;;;;;;11.12;44.19;99422.52;1676593;82;21501;-62
2023/03/18 10:28:46;;;;;;;28.95;23.22;;;;;;;11.22;44.01;99410.61;1672731;82;21014;-64
2023/03/18 10:31:42;;;;;;;14.60;10.25;;;;;;;11.45;43.70;99413.73;1642402;84;21612;-64
2023/03/18 10:34:24;;;;;;;16.80;11.03;;;;;;;11.58;43.50;99414.27;1730181;81;21137;-64
2023/03/18 10:37:13;;;;;;;24.40;18.42;;;;;;;11.55;43.09;99407.90;1731249;81;20988;-62
2023/03/18 10:39:41;;;;;;;12.13;8.13;;;;;;;11.77;43.48;99412.77;1725603;81;21073;-65
2023/03/18 10:42:20;;;;;;;15.18;8.35;;;;;;;12.15;43.13;99412.34;1708752;82;20992;-64
2023/03/18 10:44:48;;;;;;;10.45;7.55;;;;;;;12.05;41.96;99419.06;1726703;81;22385;-64
2023/03/18 10:47:32;;;;;;;11.60;7.80;;;;;;;11.84;42.27;99413.24;1728860;81;21499;-65
2023/03/18 10:50:16;;;;;;;10.40;7.87;;;;;;;11.99;42.16;99414.19;1705108;82;21078;-65
2023/03/18 10:53:12;;;;;;;14.00;7.85;;;;;;;11.99;42.16;99414.19;1727692;81;21726;-66
2023/03/18 10:56:03;;;;;;;20.92;8.00;;;;;;;12.03;41.21;99405.22;1720352;81;21059;-68
2023/03/18 10:58:30;;;;;;;12.90;8.43;;;;;;;11.96;41.16;99401.25;1724963;81;21012;-65
2023/03/18 11:00:58;;;;;;;12.50;7.85;;;;;;;11.91;40.86;99417.23;1726798;81;21046;-71
2023/03/18 11:03:59;;;;;;;13.43;7.95;;;;;;;11.97;41.17;99406.88;1730343;81;21724;-65
2023/03/18 11:06:32;;;;;;;12.10;7.72;;;;;;;12.36;40.55;99406.31;1728165;81;20967;-67
2023/03/18 11:09:09;;;;;;;12.75;9.03;;;;;;;12.79;40.48;99412.88;1724160;81;20975;-62
2023/03/18 11:11:40;;;;;;;23.20;9.78;;;;;;;13.16;40.82;99412.77;1705687;81;20959;-63
2023/03/18 11:14:21;;;;;;;15.83;8.43;;;;;;;13.73;40.94;99401.77;1727595;81;21046;-62
2023/03/18 11:17:01;;;;;;;26.77;10.58;;;;;;;14.29;40.81;99397.98;1730449;81;21144;-62
2023/03/18 11:19:51;;;;;;;;;;;;;;;;;;;;;
2023/03/18 11:22:27;;;;;;;10.93;8.50;;;;;;;14.44;40.08;99390.84;1727717;81;21742;-65
2023/03/18 11:25:38;;;;;;;;;;;;;;;;;;;;;
2023/03/18 11:28:03;;;;;;;17.82;11.73;;;;;;;14.19;39.62;99380.32;1713328;81;21042;-63
2023/03/18 11:30:45;;;;;;;16.75;7.75;;;;;;;13.83;39.07;99385.77;1736175;81;21082;-64
2023/03/18 11:33:36;;;;;;;14.10;8.48;;;;;;;13.73;39.48;99387.34;1683823;81;20990;-67
2023/03/18 11:36:12;;;;;;;11.90;8.40;;;;;;;13.68;38.95;99395.50;1687547;83;22321;-65
2023/03/18 11:39:02;;;;;;;;;;;;;;;;;;;;;
2023/03/18 11:41:30;;;;;;;16.20;7.60;;;;;;;13.29;38.77;99379.23;1643012;85;21104;-65
2023/03/18 11:44:06;;;;;;;14.38;8.65;;;;;;;13.38;38.71;99373.40;1617901;86;21513;-65
2023/03/18 11:46:39;;;;;;;;;;;;;;;13.38;38.20;99384.72;1609349;87;22344;-64
2023/03/18 11:49:12;;;;;;;11.80;7.95;;;;;;;13.31;37.95;99400.97;1627042;85;20183;-64
2023/03/18 11:52:22;;;;;;;14.35;8.50;;;;;;;13.04;37.58;99375.52;1625835;86;21046;-63
2023/03/18 11:55:28;;;;;;;12.35;7.37;;;;;;;12.92;37.75;99378.91;1593758;88;21132;-65